createdAt,value
2019-02-28T00:01:47.216Z,9.50
2019-02-28T00:04:16.749Z,10.20
2019-02-28T00:06:46.212Z,9.07
2019-02-28T00:09:15.970Z,9.00
2019-02-28T00:11:45.433Z,8.73
2019-02-28T00:14:14.869Z,8.07
2019-02-28T00:16:44.353Z,6.97
2019-02-28T00:19:13.797Z,6.27
2019-02-28T00:21:43.248Z,5.70
2019-02-28T00:24:12.671Z,5.30
2019-02-28T00:26:46.266Z,4.87
2019-02-28T00:29:13.222Z,4.97
2019-02-28T00:31:42.719Z,4.20
2019-02-28T00:34:12.129Z,4.40
2019-02-28T00:36:41.729Z,3.67
2019-02-28T00:39:11.171Z,4.07
2019-02-28T00:41:44.294Z,5.00
2019-02-28T00:44:11.728Z,6.47
2019-02-28T00:46:45.187Z,7.03
2019-02-28T00:49:12.316Z,5.80
2019-02-28T00:51:41.801Z,6.00
2019-02-28T00:54:11.301Z,7.73
2019-02-28T00:56:40.774Z,8.10
2019-02-28T00:59:10.187Z,8.90
2019-02-28T01:01:39.659Z,13.47
2019-02-28T01:04:09.102Z,14.03
2019-02-28T01:06:41.799Z,8.93
2019-02-28T01:09:10.482Z,10.20
2019-02-28T01:11:39.935Z,11.63
2019-02-28T01:14:09.460Z,9.30
2019-02-28T01:16:38.937Z,6.23
2019-02-28T01:19:09.914Z,7.30
2019-02-28T01:21:39.532Z,8.30
2019-02-28T01:24:08.970Z,8.13
2019-02-28T01:26:38.459Z,3.73
2019-02-28T01:29:07.897Z,7.03
2019-02-28T01:31:37.361Z,10.33
2019-02-28T01:34:06.797Z,7.53
2019-02-28T01:36:36.292Z,7.80
2019-02-28T01:39:06.969Z,7.47
2019-02-28T01:41:36.448Z,8.77
2019-02-28T01:44:05.887Z,8.30
2019-02-28T01:46:35.336Z,6.83
2019-02-28T01:49:04.765Z,6.90
2019-02-28T01:51:36.635Z,8.53
2019-02-28T01:54:05.321Z,6.50
2019-02-28T01:56:36.977Z,5.00
2019-02-28T01:59:05.862Z,4.03
2019-02-28T02:01:35.324Z,5.67
2019-02-28T02:04:04.781Z,5.50
2019-02-28T02:06:34.349Z,6.80
2019-02-28T02:09:05.114Z,6.30
2019-02-28T02:11:34.568Z,7.47
2019-02-28T02:14:04.011Z,6.97
2019-02-28T02:16:33.489Z,6.67
2019-02-28T02:19:02.920Z,3.80
2019-02-28T02:21:34.890Z,4.07
2019-02-28T02:24:04.592Z,3.97
2019-02-28T02:26:34.076Z,3.60
2019-02-28T02:29:03.510Z,3.67
2019-02-28T02:31:32.939Z,3.03
2019-02-28T02:34:02.412Z,3.37
2019-02-28T02:36:31.869Z,3.23
2019-02-28T02:39:01.337Z,8.37
2019-02-28T02:41:33.301Z,6.30
2019-02-28T02:44:01.905Z,4.00
2019-02-28T02:46:31.357Z,3.00
2019-02-28T02:49:00.810Z,3.50
2019-02-28T02:51:30.262Z,3.40
2019-02-28T02:53:59.736Z,3.50
2019-02-28T02:56:29.176Z,2.87
2019-02-28T02:59:02.147Z,3.27
2019-02-28T03:01:31.541Z,3.80
2019-02-28T03:04:00.994Z,3.70
2019-02-28T03:06:30.462Z,3.93
2019-02-28T03:08:59.928Z,4.43
2019-02-28T03:11:29.358Z,3.70
2019-02-28T03:13:58.814Z,3.37
2019-02-28T03:16:28.254Z,5.33
2019-02-28T03:18:58.437Z,5.87
2019-02-28T03:21:27.957Z,4.47
2019-02-28T03:23:57.467Z,3.90
2019-02-28T03:26:26.892Z,4.53
2019-02-28T03:28:56.341Z,4.63
2019-02-28T03:31:25.781Z,4.50
2019-02-28T03:33:55.259Z,5.30
2019-02-28T03:36:24.680Z,4.87
2019-02-28T03:38:54.154Z,3.40
2019-02-28T03:41:23.587Z,4.03
2019-02-28T03:43:53.049Z,4.60
2019-02-28T03:46:22.496Z,5.03
2019-02-28T03:48:51.951Z,5.17
2019-02-28T03:51:21.382Z,4.00
2019-02-28T03:53:55.557Z,2.47
2019-02-28T03:56:22.013Z,6.77
2019-02-28T03:58:51.494Z,8.20
2019-02-28T04:01:21.045Z,5.00
2019-02-28T04:03:50.710Z,2.83
2019-02-28T04:06:20.175Z,4.10
2019-02-28T04:08:49.682Z,6.57
2019-02-28T04:11:19.123Z,3.73
2019-02-28T04:13:52.569Z,9.13
2019-02-28T04:16:19.664Z,13.13
2019-02-28T04:18:49.126Z,15.40
2019-02-28T04:21:18.567Z,9.20
2019-02-28T04:23:48.048Z,4.00
2019-02-28T04:26:17.487Z,3.07
2019-02-28T04:28:53.448Z,2.40
2019-02-28T04:31:19.964Z,1.93
2019-02-28T04:33:49.134Z,2.07
2019-02-28T04:36:18.583Z,1.73
2019-02-28T04:38:48.032Z,2.23
2019-02-28T04:41:17.462Z,1.90
2019-02-28T04:43:46.947Z,2.03
2019-02-28T04:46:16.376Z,2.17
2019-02-28T04:48:48.416Z,1.60
2019-02-28T04:51:16.932Z,3.70
2019-02-28T04:53:46.381Z,2.30
2019-02-28T04:56:15.869Z,2.20
2019-02-28T04:58:45.322Z,1.80
2019-02-28T05:01:14.761Z,2.17
2019-02-28T05:03:44.231Z,1.97
2019-02-28T05:06:13.713Z,1.83
2019-02-28T05:08:44.175Z,2.13
2019-02-28T05:11:13.856Z,2.17
2019-02-28T05:13:48.373Z,2.10
2019-02-28T05:16:14.404Z,2.13
2019-02-28T05:18:43.849Z,2.00
2019-02-28T05:21:13.302Z,2.20
2019-02-28T05:23:42.824Z,2.50
2019-02-28T05:26:12.283Z,2.73
2019-02-28T05:28:41.743Z,2.43
2019-02-28T05:31:11.195Z,2.53
2019-02-28T05:33:41.892Z,3.13
2019-02-28T05:36:11.748Z,2.70
2019-02-28T05:38:41.173Z,2.70
2019-02-28T05:41:12.137Z,2.80
2019-02-28T05:43:41.709Z,2.83
2019-02-28T05:46:11.162Z,2.60
2019-02-28T05:48:40.607Z,2.93
2019-02-28T05:51:10.080Z,2.73
2019-02-28T05:53:41.270Z,2.63
2019-02-28T05:56:10.616Z,3.00
2019-02-28T05:58:40.061Z,3.17
2019-02-28T06:01:11.985Z,2.87
2019-02-28T06:03:41.853Z,3.80
2019-02-28T06:06:11.333Z,4.37
2019-02-28T06:08:40.769Z,4.47
2019-02-28T06:11:10.247Z,6.20
2019-02-28T06:13:39.698Z,7.63
2019-02-28T06:16:12.336Z,6.30
2019-02-28T06:18:40.633Z,4.57
2019-02-28T06:21:10.384Z,3.93
2019-02-28T06:23:40.742Z,2.90
2019-02-28T06:26:10.977Z,3.77
2019-02-28T06:28:40.414Z,3.37
2019-02-28T06:31:09.881Z,3.57
2019-02-28T06:33:39.364Z,3.73
2019-02-28T06:36:08.890Z,4.20
2019-02-28T06:38:38.310Z,3.63
2019-02-28T06:41:08.684Z,4.50
2019-02-28T06:43:38.309Z,4.23
2019-02-28T06:46:08.534Z,4.00
2019-02-28T06:48:38.743Z,4.00
2019-02-28T06:51:08.196Z,4.83
2019-02-28T06:53:39.659Z,4.20
2019-02-28T06:56:09.115Z,4.53
2019-02-28T06:58:39.644Z,4.60
2019-02-28T07:01:09.101Z,5.00
2019-02-28T07:03:38.990Z,4.50
2019-02-28T07:06:09.324Z,6.13
2019-02-28T07:08:38.753Z,6.27
2019-02-28T07:11:08.218Z,5.10
2019-02-28T07:13:40.015Z,4.87
2019-02-28T07:16:08.773Z,6.10
2019-02-28T07:18:38.436Z,5.40
2019-02-28T07:21:08.678Z,5.63
2019-02-28T07:23:38.288Z,6.80
2019-02-28T07:26:07.711Z,6.77
2019-02-28T07:28:37.682Z,7.00
2019-02-28T07:31:07.196Z,6.70
2019-02-28T07:33:36.647Z,6.27
2019-02-28T07:36:09.339Z,5.80
2019-02-28T07:38:37.288Z,6.97
2019-02-28T07:41:06.767Z,6.30
2019-02-28T07:43:36.205Z,7.27
2019-02-28T07:46:07.773Z,7.13
2019-02-28T07:48:36.762Z,8.20
2019-02-28T07:51:06.250Z,7.90
2019-02-28T07:53:35.728Z,8.60
2019-02-28T07:56:06.845Z,8.03
2019-02-28T07:58:36.366Z,7.10
2019-02-28T08:01:05.957Z,8.63
2019-02-28T08:03:35.391Z,6.60
2019-02-28T08:06:05.790Z,6.83
2019-02-28T08:08:35.398Z,8.33
2019-02-28T08:11:05.185Z,8.40
2019-02-28T08:13:37.746Z,8.87
2019-02-28T08:16:05.761Z,8.90
2019-02-28T08:18:35.257Z,8.87
2019-02-28T08:21:05.284Z,10.80
2019-02-28T08:23:37.467Z,9.70
2019-02-28T08:26:07.265Z,9.00
2019-02-28T08:28:36.990Z,12.20
2019-02-28T08:31:07.411Z,8.60
2019-02-28T08:33:38.082Z,10.13
2019-02-28T08:36:11.526Z,8.73
2019-02-28T08:38:38.726Z,9.00
2019-02-28T08:41:08.162Z,9.13
2019-02-28T08:43:37.646Z,9.60
2019-02-28T08:46:10.824Z,7.90
2019-02-28T08:48:38.180Z,9.30
2019-02-28T08:51:07.618Z,10.13
2019-02-28T08:53:37.089Z,8.97
2019-02-28T08:56:06.598Z,9.17
2019-02-28T08:58:37.587Z,8.60
2019-02-28T09:01:08.247Z,9.73
2019-02-28T09:03:37.713Z,8.57
2019-02-28T09:06:07.501Z,9.50
2019-02-28T09:08:37.031Z,9.10
2019-02-28T09:11:06.463Z,9.63
2019-02-28T09:13:35.918Z,9.30
2019-02-28T09:16:05.632Z,9.50
2019-02-28T09:18:35.135Z,9.43
2019-02-28T09:21:04.637Z,10.43
2019-02-28T09:23:34.397Z,9.87
2019-02-28T09:26:05.164Z,9.03
2019-02-28T09:28:34.693Z,9.40
2019-02-28T09:31:05.045Z,9.17
2019-02-28T09:33:35.417Z,8.50
2019-02-28T09:36:04.949Z,7.30
2019-02-28T09:38:34.432Z,8.93
2019-02-28T09:41:04.564Z,8.10
2019-02-28T09:43:34.833Z,7.83
2019-02-28T09:46:04.262Z,8.43
2019-02-28T09:48:33.981Z,7.97
2019-02-28T09:51:04.815Z,8.50
2019-02-28T09:53:34.326Z,7.80
2019-02-28T09:56:08.916Z,7.43
2019-02-28T09:58:34.874Z,7.77
2019-02-28T10:01:04.941Z,8.20
2019-02-28T10:03:34.716Z,6.60
2019-02-28T10:06:04.294Z,6.30
2019-02-28T10:08:36.676Z,6.47
2019-02-28T10:11:04.841Z,7.20
2019-02-28T10:13:34.418Z,7.13
2019-02-28T10:16:03.844Z,8.43
2019-02-28T10:18:35.443Z,7.57
2019-02-28T10:21:04.540Z,7.80
2019-02-28T10:23:34.066Z,6.60
2019-02-28T10:26:03.508Z,7.13
2019-02-28T10:28:36.249Z,7.37
2019-02-28T10:31:09.052Z,7.73
2019-02-28T10:33:41.202Z,7.57
2019-02-28T10:36:12.811Z,6.37
2019-02-28T10:38:41.789Z,6.67
2019-02-28T10:41:11.266Z,7.60
2019-02-28T10:43:40.729Z,7.60
2019-02-28T10:46:10.286Z,6.43
2019-02-28T10:48:50.469Z,6.90
2019-02-28T10:51:13.971Z,8.27
2019-02-28T10:53:41.935Z,7.50
2019-02-28T10:56:11.469Z,10.23
2019-02-28T10:58:40.923Z,8.83
2019-02-28T11:01:12.045Z,8.20
2019-02-28T11:03:41.508Z,7.50
2019-02-28T11:06:11.122Z,7.00
2019-02-28T11:08:40.592Z,12.93
2019-02-28T11:11:10.432Z,7.87
2019-02-28T11:13:40.619Z,8.67
2019-02-28T11:16:10.047Z,7.87
2019-02-28T11:18:41.988Z,8.80
2019-02-28T11:21:10.854Z,10.23
2019-02-28T11:23:40.374Z,8.40
2019-02-28T11:26:10.479Z,9.80
2019-02-28T11:28:40.065Z,9.10
2019-02-28T11:31:11.139Z,9.37
2019-02-28T11:33:40.746Z,9.80
2019-02-28T11:36:10.207Z,8.63
2019-02-28T11:38:39.676Z,8.93
2019-02-28T11:41:09.145Z,9.90
2019-02-28T11:43:38.683Z,7.93
2019-02-28T11:46:09.714Z,8.50
2019-02-28T11:48:39.144Z,8.33
2019-02-28T11:51:08.613Z,8.93
2019-02-28T11:53:40.328Z,9.90
2019-02-28T11:56:09.171Z,9.60
2019-02-28T11:58:38.615Z,7.40
2019-02-28T12:01:10.518Z,9.00
2019-02-28T12:03:39.380Z,7.30
2019-02-28T12:06:08.865Z,9.60
2019-02-28T12:08:38.316Z,8.43
2019-02-28T12:11:07.782Z,8.30
2019-02-28T12:13:37.220Z,10.40
2019-02-28T12:16:06.700Z,10.50
2019-02-28T12:18:39.514Z,8.43
2019-02-28T12:21:07.354Z,9.37
2019-02-28T12:23:36.785Z,9.67
2019-02-28T12:26:06.385Z,9.43
2019-02-28T12:28:38.321Z,8.83
2019-02-28T12:31:07.176Z,7.73
2019-02-28T12:33:36.600Z,8.80
2019-02-28T12:36:06.341Z,9.10
2019-02-28T12:38:37.553Z,9.90
2019-02-28T12:41:08.155Z,10.67
2019-02-28T12:43:40.619Z,9.70
2019-02-28T12:46:08.671Z,9.40
2019-02-28T12:48:38.112Z,10.00
2019-02-28T12:51:07.611Z,10.10
2019-02-28T12:53:37.068Z,9.20
2019-02-28T12:56:06.629Z,9.70
2019-02-28T12:58:38.743Z,9.30
2019-02-28T13:01:07.465Z,10.90
2019-02-28T13:03:36.909Z,10.70
2019-02-28T13:06:06.466Z,8.67
2019-02-28T13:08:38.609Z,8.33
2019-02-28T13:11:08.433Z,12.47
2019-02-28T13:13:37.902Z,10.90
2019-02-28T13:16:07.329Z,9.13
2019-02-28T13:18:39.554Z,10.00
2019-02-28T13:21:10.651Z,9.50
2019-02-28T13:23:39.126Z,10.03
2019-02-28T13:26:08.568Z,8.87
2019-02-28T13:28:38.067Z,9.40
2019-02-28T13:31:07.625Z,9.50
2019-02-28T13:33:37.107Z,7.97
2019-02-28T13:36:07.145Z,7.60
2019-02-28T13:38:36.606Z,10.43
2019-02-28T13:41:06.050Z,9.70
2019-02-28T13:43:35.531Z,10.83
2019-02-28T13:46:05.138Z,11.00
2019-02-28T13:48:35.027Z,9.20
2019-02-28T13:51:08.416Z,9.33
2019-02-28T13:53:37.470Z,9.17
2019-02-28T13:56:06.909Z,10.17
2019-02-28T13:58:36.461Z,10.40
2019-02-28T14:01:06.402Z,11.40
2019-02-28T14:03:35.971Z,10.60
2019-02-28T14:06:05.883Z,10.70
2019-02-28T14:08:35.374Z,10.30
2019-02-28T14:11:05.799Z,10.00
2019-02-28T14:13:35.924Z,8.83
2019-02-28T14:16:05.607Z,9.90
2019-02-28T14:18:35.093Z,7.80
2019-02-28T14:21:04.538Z,9.37
2019-02-28T14:23:34.008Z,9.50
2019-02-28T14:26:03.790Z,10.83
2019-02-28T14:28:35.636Z,9.60
2019-02-28T14:31:04.438Z,9.87
2019-02-28T14:33:33.918Z,10.30
2019-02-28T14:36:03.392Z,10.47
2019-02-28T14:38:33.765Z,10.37
2019-02-28T14:41:03.325Z,11.50
2019-02-28T14:43:32.779Z,10.00
2019-02-28T14:46:02.214Z,10.10
2019-02-28T14:48:31.683Z,10.63
2019-02-28T14:51:01.131Z,10.03
2019-02-28T14:53:30.701Z,10.53
2019-02-28T14:56:00.153Z,9.73
2019-02-28T14:58:30.832Z,10.67
2019-02-28T15:01:00.274Z,10.00
2019-02-28T15:03:29.766Z,8.77
2019-02-28T15:05:59.246Z,9.90
2019-02-28T15:08:28.738Z,10.53
2019-02-28T15:10:58.227Z,9.40
2019-02-28T15:13:30.417Z,8.97
2019-02-28T15:15:58.784Z,9.33
2019-02-28T15:18:28.689Z,9.47
2019-02-28T15:20:58.566Z,10.77
2019-02-28T15:23:30.841Z,10.20
2019-02-28T15:25:59.172Z,9.07
2019-02-28T15:28:28.737Z,11.43
2019-02-28T15:30:58.162Z,9.37
2019-02-28T15:33:30.555Z,9.70
2019-02-28T15:35:58.765Z,10.27
2019-02-28T15:38:28.460Z,9.57
2019-02-28T15:40:58.785Z,8.20
2019-02-28T15:43:29.077Z,9.50
2019-02-28T15:45:58.507Z,9.60
2019-02-28T15:48:28.181Z,8.87
2019-02-28T15:50:57.855Z,9.90
2019-02-28T15:53:27.362Z,9.33
2019-02-28T15:55:56.930Z,8.80
2019-02-28T15:58:26.375Z,8.73
2019-02-28T16:00:56.608Z,10.37
2019-02-28T16:03:26.886Z,8.20
2019-02-28T16:05:56.515Z,8.57
2019-02-28T16:08:28.270Z,6.40
2019-02-28T16:10:57.108Z,9.27
2019-02-28T16:13:26.629Z,6.93
2019-02-28T16:15:56.085Z,8.00
2019-02-28T16:18:25.687Z,9.17
2019-02-28T16:20:55.204Z,8.13
2019-02-28T16:23:27.603Z,8.33
2019-02-28T16:25:56.724Z,7.60
2019-02-28T16:28:26.151Z,9.00
2019-02-28T16:30:55.635Z,9.30
2019-02-28T16:33:25.525Z,8.90
2019-02-28T16:35:55.034Z,7.93
2019-02-28T16:38:24.972Z,8.70
2019-02-28T16:40:54.430Z,8.43
2019-02-28T16:43:23.858Z,9.37
2019-02-28T16:45:53.314Z,9.10
2019-02-28T16:48:22.766Z,9.30
2019-02-28T16:50:53.771Z,8.20
2019-02-28T16:53:23.874Z,8.20
2019-02-28T16:55:53.396Z,9.73
2019-02-28T16:58:22.986Z,8.80
2019-02-28T17:00:58.555Z,8.43
2019-02-28T17:03:28.116Z,9.23
2019-02-28T17:05:58.444Z,9.20
2019-02-28T17:08:31.139Z,9.60
2019-02-28T17:11:00.623Z,10.00
2019-02-28T17:13:51.758Z,9.17
2019-02-28T17:16:41.466Z,9.53
2019-02-28T17:19:10.903Z,10.97
2019-02-28T17:21:40.375Z,9.60
2019-02-28T17:24:12.300Z,9.30
2019-02-28T17:26:53.766Z,10.13
2019-02-28T17:29:40.796Z,9.57
2019-02-28T17:32:10.253Z,11.03
2019-02-28T17:34:39.700Z,10.30
2019-02-28T17:37:09.258Z,9.40
2019-02-28T17:39:38.708Z,9.93
2019-02-28T17:42:09.031Z,9.10
2019-02-28T17:45:16.459Z,9.53
2019-02-28T17:48:45.373Z,10.97
2019-02-28T17:51:46.327Z,11.20
2019-02-28T17:54:47.344Z,10.37
2019-02-28T17:57:30.808Z,10.70
2019-02-28T18:00:36.729Z,10.03
2019-02-28T18:03:59.895Z,10.47
2019-02-28T18:07:12.772Z,11.00
2019-02-28T18:10:32.098Z,11.13
2019-02-28T18:13:30.385Z,11.57
2019-02-28T18:16:26.845Z,10.77
2019-02-28T18:19:40.137Z,9.80
2019-02-28T18:23:02.887Z,12.00
2019-02-28T18:26:08.453Z,10.87
2019-02-28T18:28:46.519Z,11.90
2019-02-28T18:31:19.206Z,11.50
2019-02-28T18:33:54.527Z,11.20
2019-02-28T18:36:26.354Z,11.30
2019-02-28T18:38:55.854Z,10.63
2019-02-28T18:41:26.109Z,10.87
2019-02-28T18:43:56.309Z,11.70
2019-02-28T18:46:29.501Z,12.53
2019-02-28T18:48:57.159Z,12.13
2019-02-28T18:51:26.628Z,11.70
2019-02-28T18:53:56.121Z,11.83
2019-02-28T18:56:25.590Z,12.17
2019-02-28T18:58:55.061Z,10.67
2019-02-28T19:01:24.493Z,11.83
2019-02-28T19:03:53.970Z,11.73
2019-02-28T19:06:23.460Z,11.13
2019-02-28T19:08:52.927Z,12.07
2019-02-28T19:11:22.366Z,12.97
2019-02-28T19:13:53.396Z,11.63
2019-02-28T19:16:22.938Z,10.67
2019-02-28T19:18:52.406Z,11.57
2019-02-28T19:21:21.854Z,11.07
2019-02-28T19:23:51.293Z,11.27
2019-02-28T19:26:20.757Z,12.10
2019-02-28T19:28:50.230Z,11.57
2019-02-28T19:31:19.811Z,12.10
2019-02-28T19:33:49.390Z,13.00
2019-02-28T19:36:18.945Z,10.90
2019-02-28T19:38:48.438Z,10.77
2019-02-28T19:41:17.909Z,12.53
2019-02-28T19:43:47.391Z,11.47
2019-02-28T19:46:16.827Z,11.07
2019-02-28T19:48:46.401Z,10.70
2019-02-28T19:51:16.003Z,11.50
2019-02-28T19:53:45.519Z,11.70
2019-02-28T19:56:14.986Z,12.47
2019-02-28T19:58:44.449Z,11.90
2019-02-28T20:01:18.923Z,11.30
2019-02-28T20:03:45.140Z,13.37
2019-02-28T20:06:14.665Z,12.20
2019-02-28T20:08:44.171Z,11.63
2019-02-28T20:11:13.614Z,12.13
2019-02-28T20:13:43.093Z,10.27
2019-02-28T20:16:12.529Z,11.93
2019-02-28T20:18:42.098Z,11.43
2019-02-28T20:21:11.596Z,11.00
2019-02-28T20:23:42.870Z,11.30
2019-02-28T20:26:12.395Z,12.63
2019-02-28T20:28:41.880Z,12.87
2019-02-28T20:31:11.621Z,12.20
2019-02-28T20:33:41.139Z,12.20
2019-02-28T20:36:10.707Z,11.70
2019-02-28T20:38:40.179Z,11.23
2019-02-28T20:41:09.629Z,12.00
2019-02-28T20:43:39.073Z,11.40
2019-02-28T20:46:08.551Z,12.03
2019-02-28T20:48:37.980Z,12.00
2019-02-28T20:51:07.495Z,10.53
2019-02-28T20:53:36.927Z,11.03
2019-02-28T20:56:06.391Z,11.37
2019-02-28T20:58:35.835Z,11.03
2019-02-28T21:01:05.420Z,11.60
2019-02-28T21:03:34.871Z,11.90
2019-02-28T21:06:04.467Z,11.23
2019-02-28T21:08:33.919Z,12.30
2019-02-28T21:11:03.381Z,12.73
2019-02-28T21:13:32.831Z,12.37
2019-02-28T21:16:02.357Z,12.03
2019-02-28T21:18:31.773Z,11.67
2019-02-28T21:21:01.216Z,12.07
2019-02-28T21:23:30.649Z,11.27
2019-02-28T21:26:00.103Z,12.57
2019-02-28T21:28:29.537Z,12.50
2019-02-28T21:30:59.009Z,12.03
2019-02-28T21:33:28.452Z,11.90
2019-02-28T21:35:58.009Z,12.20
2019-02-28T21:38:27.459Z,13.00
2019-02-28T21:40:56.925Z,12.47
2019-02-28T21:43:26.365Z,12.10
2019-02-28T21:45:55.861Z,12.93
2019-02-28T21:48:25.313Z,12.77
2019-02-28T21:50:54.769Z,12.37
2019-02-28T21:53:24.211Z,12.90
2019-02-28T21:55:53.762Z,12.40
2019-02-28T21:58:23.209Z,13.10
2019-02-28T22:00:52.675Z,12.17
2019-02-28T22:03:22.108Z,12.70
2019-02-28T22:05:51.649Z,13.20
2019-02-28T22:08:21.098Z,12.20
2019-02-28T22:10:50.569Z,12.07
2019-02-28T22:13:20.009Z,11.90
2019-02-28T22:15:49.481Z,13.83
2019-02-28T22:18:18.923Z,11.10
2019-02-28T22:20:48.384Z,11.93
2019-02-28T22:23:17.826Z,11.07
2019-02-28T22:25:47.314Z,11.93
2019-02-28T22:28:16.735Z,12.63
2019-02-28T22:31:05.197Z,11.53
2019-02-28T22:33:52.310Z,10.67
2019-02-28T22:36:26.402Z,11.97
2019-02-28T22:38:55.835Z,11.57
2019-02-28T22:41:25.318Z,10.97
2019-02-28T22:43:54.752Z,11.40
2019-02-28T22:46:24.214Z,11.60
2019-02-28T22:48:53.753Z,10.60
2019-02-28T22:51:24.444Z,11.70
2019-02-28T22:53:53.889Z,11.27
2019-02-28T22:56:23.425Z,10.80
2019-02-28T22:58:52.952Z,11.80
2019-02-28T23:01:25.491Z,10.30
2019-02-28T23:03:54.957Z,9.70
2019-02-28T23:06:24.412Z,9.20
2019-02-28T23:08:53.877Z,10.10
2019-02-28T23:11:23.468Z,8.70
2019-02-28T23:13:52.937Z,8.77
2019-02-28T23:16:22.369Z,8.37
2019-02-28T23:18:51.831Z,7.83
2019-02-28T23:21:21.321Z,9.67
2019-02-28T23:23:50.781Z,9.23
2019-02-28T23:26:27.632Z,9.20
2019-02-28T23:29:16.567Z,9.90
2019-02-28T23:32:27.317Z,9.97
2019-02-28T23:34:57.324Z,9.50
2019-02-28T23:37:26.795Z,10.10
2019-02-28T23:39:56.273Z,10.13
2019-02-28T23:42:25.733Z,10.73
2019-02-28T23:44:55.174Z,10.33
2019-02-28T23:47:24.649Z,8.97
2019-02-28T23:49:55.178Z,9.87
2019-02-28T23:52:24.616Z,8.80
2019-02-28T23:54:54.080Z,8.50
2019-02-28T23:57:23.506Z,9.00
2019-02-28T23:59:52.968Z,8.83
